Aktualne dane pomiarowe

Uwaga, wersja testowa! Automatyczne pobieranie danych za pomocą narzędzi lub skryptów to umożliwiających jest zabronione.

Dane meteo z obszaru Polski uzyskane na podstawie depesz SYNOP pobieranych co godzinę z NWS. Najedź myszką na symbol przedstawiony w tabeli, aby uzyskać informacje co do jego znaczenia. Prosimy pamiętać, że to testowa wersja strony, która jeszcze nie jest ukończona. Stworzono również jest krótki FAQ dotyczący korzystania z tej podstrony Anomalie temperatury w chwili obecnej odniesione są do okresu referencyjnego 1951-2016. Okres ten będzie później zmieniony na 1981-2010. Kliknij ikonę aby pobrać plik CSV. Kliknij ikonę aby wygenerować mapę synoptyczną dla danego terminu.

Wybierz Datę:    

        

Mikołajki (12280)

Dane terminowe dla wybranej stacji. Kliknij datę, aby otrzymać dane z tego terminu dla wszystkich stacji.

TemperaturaZachmurzenieWiatrCiśnienieOpadyPogoda
 Data t td wb tx tn tg rh  Nt Nl Cl Cm Ch ws wd g1 g2 wx mslp ppp ch 24h 12h t ww ww w1 w2  
2019-08-08 23:00:00 14.3 13.5 13.7--- 9545.0wxwxwxwx2wx--21010.0 994.7 0.0---wx-w1--
2019-08-08 22:00:00 15.2 13.7 14.1--- 9115.0wxwxwx5wx111451011.2 995.9 1.4---wx-w1--
2019-08-08 21:00:00 15.2 13.7 14.1--- 9121.0wxwxwx2wx-1221010.0 994.7 0.5---wx---
2019-08-08 20:00:00 16.0 15.2 15.4--- 9528.0wx-wx0----1009.9 994.7 1.0---------
2019-08-08 19:00:00 15.7 14.1 14.6--- 9019.0wx-1wx--11009.7 994.5 0.8---------
2019-08-08 18:00:00 17.3 14.0 15.1 22.4 17.0- 8145.0wxwxwx2wx-1421009.3 994.2 0.8- 2.012wx-w1w2--
2019-08-08 17:00:00 19.1 15.6 16.7--- 8035.0wxwxwx2wx-1021008.7 993.7 0.8---wx---
2019-08-08 16:00:00 19.8 13.3 15.6--- 6612.0wxwxwxwx6wx11--1008.7 993.7 1.2---wx---
2019-08-08 15:00:00 21.9 14.8 17.3--- 6440.0wxwxwxwx4wx---1008.3 993.4 1.5---------
2019-08-08 14:00:00 21.5 13.4 16.4--- 6035.0wxwxwxwx4wx91441007.8 992.9 1.4---------
2019-08-08 13:00:00 21.1 13.8 16.4--- 6345.0wxwxwxwx6wx-1161007.4 992.5 1.5---------
2019-08-08 12:00:00 21.8 14.9 17.3--- 6535.0wxwxwx5wx121351006.8 991.9 1.3- 0.26wx-w1--
2019-08-08 11:00:00 20.4 14.7 16.6--- 7035.0wxwxwx5wx131351006.4 991.5 1.6---------
2019-08-08 10:00:00 19.9 15.9 17.2--- 7835.0wxwxwxwx6wx-1061006.0 991.0 1.7---------
2019-08-08 09:00:00 19.1 15.0 16.3--- 7740.0wxwxwxwx5wx-1051005.6 990.6 2.4---wx---
2019-08-08 08:00:00 18.0 16.5 16.9--- 9140.0wxwxwxwx3wx--31004.9 989.9 2.4---------
2019-08-08 07:00:00 17.5 17.2 17.3--- 9820.0wxwxwx3wx--31004.4 989.3 1.7---wx---
2019-08-08 06:00:00 17.1 16.8 16.9 21.5 17.1 17 985.0wxwxwx3wx-931003.3 988.2 0.5 7.2 7.012wx-w1- 7.7
2019-08-08 05:00:00 17.2 16.9 17.0--- 9830.0wxwxwx4wx---1002.5 987.5 -0.2---wx-w1--
2019-08-08 04:00:00 17.5 17.2 17.3--- 9810.0wxwxwx4wx---1002.6 987.6 -1.0---wx---
2019-08-08 03:00:00 17.9 17.4 17.5--- 9714.0wxwxwx4wx-941002.7 987.7 -1.2---wx-w1--
2019-08-08 02:00:00 18.2 17.9 18.0--- 9812.0wxwxwx5wx--51002.7 987.7 -2.0---wx-w1--
2019-08-08 01:00:00 18.8 18.5 18.6--- 9810.0wxwxwx4wx--41003.6 988.6 -1.3---wx-w1w2--
2019-08-08 00:00:00 18.7 17.9 18.1--- 957.0wxwxwx3wx--31003.9 988.9 -1.5- 1.06wx---
2019-08-07 23:00:00 19.3 17.1 17.7--- 8717.0wxwxwx2wx--21004.7 989.7 -1.0---wx---
2019-08-07 22:00:00 20.0 16.6 17.6--- 8128.0wxwxwx2wx--21004.8 989.9 -1.3---------
2019-08-07 21:00:00 19.5 16.2 17.2--- 8130.0wx-wx3wx--31005.4 990.4 -0.9---------
2019-08-07 20:00:00 19.7 16.2 17.3--- 8040.0wx-wx2wx---1005.7 990.7 -0.7---------
2019-08-07 19:00:00 20.0 15.8 17.1--- 7740.0wx-wx1wx---1006.2 991.2 -0.4---------
2019-08-07 18:00:00 21.5 15.8 17.7 25.9 17.3- 7045.0wxwxwxwx1wx--11006.2 991.3 -0.7--12------
2019-08-07 17:00:00 23.2 16.3 18.6--- 6545.0wxwxwxwx1wx--11006.2 991.4 -0.8---------
2019-08-07 16:00:00 23.8 15.3 18.3--- 5950.0wxwxwxwx4wx--41006.4 991.6 -1.1---------
2019-08-07 15:00:00 25.3 15.3 18.9--- 5435.0wxwxwxwx3wx--31006.7 992.0 -1.2---------
2019-08-07 14:00:00 24.7 13.9 17.9--- 5130.0wxwxwxwx1wx---1006.9 992.2 -1.0---------
2019-08-07 13:00:00 24.2 14.9 18.2--- 5635.0wxwxwxwx2wx--21007.5 992.7 -0.8---------
2019-08-07 12:00:00 22.7 16.3 18.4--- 6735.0wxwxwxwx4wx--41008.0 993.2 -0.4--6wx-w1--
2019-08-07 11:00:00 22.8 16.6 18.6--- 6830.0wxwxwxwxwx2wx--21008.0 993.2 -0.2---------
2019-08-07 10:00:00 21.6 16.5 18.1--- 7335.0wxwxwxwx2wx--21008.4 993.5 0.1---------
2019-08-07 09:00:00 20.4 16.8 17.9--- 8035.0wxwxwxwxwx1wx--11008.6 993.6 0.6---wx-w1--
2019-08-07 08:00:00 18.6 16.9 17.4--- 9019.0wxwxwxwxwx1wx--11008.5 993.4 0.5---wx---
2019-08-07 07:00:00 17.5 16.2 16.6--- 9217.0wxwxwxwx1wx--11008.5 993.4 0.2---wx---
2019-08-07 06:00:00 17.4 16.9 17.0 17.4 15.3 14 9717.0wxwxwxwx1wx--11008.1 993.0 0.4 1.2 0.212wx-w1- 7.3
2019-08-07 05:00:00 16.2 15.7 15.8--- 9710.0wxwxwxwx2wx--21008.1 992.9 0.6---wx---
2019-08-07 04:00:00 16.4 15.6 15.8--- 9516.0wxwxwxwx2wx---1008.4 993.2 0.5---------
2019-08-07 03:00:00 16.3 15.7 15.8--- 9615.0wxwxwxwx2wx--21007.8 992.6 -0.6---wx-w1--
2019-08-07 02:00:00 15.8 15.3 15.4--- 978.0wx-wx1wx--11007.5 992.3 -1.6---wx---
2019-08-07 01:00:00 16.4 15.8 15.9--- 9617.0wxwxwxwx1wx--11007.9 992.7 -0.7---wx---
2019-08-07 00:00:00 16.5 15.9 16.0--- 9618.0wxwxwx2wx--21008.4 993.2 -0.3--6wx---
1.8 ms

 

Print Friendly, PDF & Email